sensor_id;sensor_type;location;lat;lon;timestamp;pressure;altitude;pressure_sealevel;temperature;humidity
27980;BME280;15315;50.836;4.430;2023-01-25T00:07:42;103178.84;;;5.45;80.85
27980;BME280;15315;50.836;4.430;2023-01-25T00:17:43;103155.63;;;6.23;78.30
27980;BME280;15315;50.836;4.430;2023-01-25T00:27:43;103148.28;;;6.39;77.43
27980;BME280;15315;50.836;4.430;2023-01-25T00:37:46;103139.00;;;5.95;79.09
27980;BME280;15315;50.836;4.430;2023-01-25T00:47:48;103142.13;;;6.31;76.90
27980;BME280;15315;50.836;4.430;2023-01-25T00:57:49;103136.19;;;6.06;77.51
27980;BME280;15315;50.836;4.430;2023-01-25T01:07:49;103128.34;;;5.12;80.70
27980;BME280;15315;50.836;4.430;2023-01-25T01:17:50;103125.53;;;5.24;81.13
27980;BME280;15315;50.836;4.430;2023-01-25T01:27:50;103112.31;;;5.88;78.79
27980;BME280;15315;50.836;4.430;2023-01-25T01:37:51;103111.69;;;6.36;76.01
27980;BME280;15315;50.836;4.430;2023-01-25T01:47:51;103131.72;;;6.05;76.85
27980;BME280;15315;50.836;4.430;2023-01-25T01:57:55;103127.38;;;6.60;75.31
27980;BME280;15315;50.836;4.430;2023-01-25T02:07:57;103129.31;;;5.85;78.11
27980;BME280;15315;50.836;4.430;2023-01-25T02:17:59;103128.63;;;5.68;76.72
27980;BME280;15315;50.836;4.430;2023-01-25T02:28:04;103126.81;;;5.70;78.51
27980;BME280;15315;50.836;4.430;2023-01-25T02:38:07;103114.53;;;5.51;77.33
27980;BME280;15315;50.836;4.430;2023-01-25T02:48:08;103116.19;;;5.64;77.03
27980;BME280;15315;50.836;4.430;2023-01-25T02:58:09;103117.59;;;5.95;75.45
27980;BME280;15315;50.836;4.430;2023-01-25T03:08:09;103111.41;;;5.90;74.60
27980;BME280;15315;50.836;4.430;2023-01-25T03:18:09;103101.81;;;5.71;74.82
27980;BME280;15315;50.836;4.430;2023-01-25T03:28:10;103094.50;;;5.85;75.20
27980;BME280;15315;50.836;4.430;2023-01-25T03:38:10;103093.34;;;5.34;76.55
27980;BME280;15315;50.836;4.430;2023-01-25T03:48:11;103081.63;;;5.43;76.51
27980;BME280;15315;50.836;4.430;2023-01-25T03:58:11;103079.00;;;5.40;76.30
27980;BME280;15315;50.836;4.430;2023-01-25T04:08:12;103063.81;;;6.14;74.47
27980;BME280;15315;50.836;4.430;2023-01-25T04:18:13;103070.81;;;5.54;76.56
27980;BME280;15315;50.836;4.430;2023-01-25T04:28:13;103063.22;;;5.16;77.20
27980;BME280;15315;50.836;4.430;2023-01-25T04:38:14;103058.72;;;5.22;77.01
27980;BME280;15315;50.836;4.430;2023-01-25T04:48:15;103057.69;;;5.34;75.95
27980;BME280;15315;50.836;4.430;2023-01-25T04:58:15;103056.44;;;5.62;74.78
27980;BME280;15315;50.836;4.430;2023-01-25T05:08:16;103059.81;;;5.02;76.89
27980;BME280;15315;50.836;4.430;2023-01-25T05:18:16;103048.59;;;5.47;76.41
27980;BME280;15315;50.836;4.430;2023-01-25T05:28:16;103045.03;;;6.15;73.36
27980;BME280;15315;50.836;4.430;2023-01-25T05:38:17;103023.47;;;5.60;73.22
27980;BME280;15315;50.836;4.430;2023-01-25T05:48:17;103012.97;;;5.43;74.61
27980;BME280;15315;50.836;4.430;2023-01-25T05:58:18;103003.09;;;5.48;75.12
27980;BME280;15315;50.836;4.430;2023-01-25T06:08:18;103012.63;;;6.33;72.28
27980;BME280;15315;50.836;4.430;2023-01-25T06:18:19;103018.38;;;6.04;73.01
27980;BME280;15315;50.836;4.430;2023-01-25T06:28:19;103010.38;;;6.03;73.04
27980;BME280;15315;50.836;4.430;2023-01-25T06:38:19;103001.22;;;6.21;72.28
27980;BME280;15315;50.836;4.430;2023-01-25T06:48:20;102999.19;;;5.74;74.21
27980;BME280;15315;50.836;4.430;2023-01-25T06:58:20;103007.66;;;5.42;75.47
27980;BME280;15315;50.836;4.430;2023-01-25T07:08:21;103009.56;;;5.98;72.84
27980;BME280;15315;50.836;4.430;2023-01-25T07:18:21;103003.22;;;6.03;72.72
27980;BME280;15315;50.836;4.430;2023-01-25T07:28:22;103000.22;;;4.91;77.56
27980;BME280;15315;50.836;4.430;2023-01-25T07:38:22;102993.03;;;4.96;75.84
27980;BME280;15315;50.836;4.430;2023-01-25T07:48:22;102987.38;;;5.24;76.53
27980;BME280;15315;50.836;4.430;2023-01-25T07:58:23;102987.03;;;5.50;76.04
27980;BME280;15315;50.836;4.430;2023-01-25T08:08:23;102980.88;;;5.45;75.10
27980;BME280;15315;50.836;4.430;2023-01-25T08:18:24;102987.72;;;4.94;76.51
27980;BME280;15315;50.836;4.430;2023-01-25T08:28:24;102983.16;;;5.72;75.07
27980;BME280;15315;50.836;4.430;2023-01-25T08:38:25;102967.09;;;5.72;74.78
27980;BME280;15315;50.836;4.430;2023-01-25T08:48:25;102974.75;;;5.34;74.90
27980;BME280;15315;50.836;4.430;2023-01-25T08:58:25;102950.19;;;5.69;75.01
27980;BME280;15315;50.836;4.430;2023-01-25T09:08:26;102952.50;;;5.30;75.65
27980;BME280;15315;50.836;4.430;2023-01-25T09:18:28;102961.94;;;5.60;73.37
27980;BME280;15315;50.836;4.430;2023-01-25T09:28:29;102960.47;;;5.99;71.98
27980;BME280;15315;50.836;4.430;2023-01-25T09:38:30;102966.34;;;6.24;71.86
27980;BME280;15315;50.836;4.430;2023-01-25T09:48:37;102955.00;;;6.06;70.11
27980;BME280;15315;50.836;4.430;2023-01-25T09:58:45;102965.16;;;5.83;73.32
27980;BME280;15315;50.836;4.430;2023-01-25T10:09:06;102940.66;;;5.48;73.74
27980;BME280;15315;50.836;4.430;2023-01-25T10:19:20;102944.34;;;6.02;71.70
27980;BME280;15315;50.836;4.430;2023-01-25T10:29:26;102933.97;;;5.79;70.90
27980;BME280;15315;50.836;4.430;2023-01-25T10:39:28;102926.25;;;6.18;71.30
27980;BME280;15315;50.836;4.430;2023-01-25T10:49:40;102895.25;;;6.55;70.33
27980;BME280;15315;50.836;4.430;2023-01-25T10:59:44;102870.06;;;6.15;71.12
27980;BME280;15315;50.836;4.430;2023-01-25T11:09:44;102836.34;;;6.95;69.83
27980;BME280;15315;50.836;4.430;2023-01-25T11:20:15;102835.25;;;6.62;68.39
27980;BME280;15315;50.836;4.430;2023-01-25T11:30:16;102804.28;;;7.28;67.87
27980;BME280;15315;50.836;4.430;2023-01-25T11:40:27;102794.69;;;6.36;67.87
27980;BME280;15315;50.836;4.430;2023-01-25T11:50:35;102772.22;;;6.84;67.16
27980;BME280;15315;50.836;4.430;2023-01-25T12:21:08;102688.22;;;6.85;67.09
27980;BME280;15315;50.836;4.430;2023-01-25T12:31:22;102672.28;;;5.95;68.18
27980;BME280;15315;50.836;4.430;2023-01-25T12:51:54;102619.09;;;6.96;66.31
27980;BME280;15315;50.836;4.430;2023-01-25T13:02:26;102593.16;;;6.97;67.31
27980;BME280;15315;50.836;4.430;2023-01-25T13:12:50;102570.53;;;7.08;66.54
27980;BME280;15315;50.836;4.430;2023-01-25T13:32:55;102554.34;;;6.42;69.92
27980;BME280;15315;50.836;4.430;2023-01-25T13:43:01;102524.34;;;7.91;65.99
27980;BME280;15315;50.836;4.430;2023-01-25T13:53:05;102513.97;;;7.79;65.15
27980;BME280;15315;50.836;4.430;2023-01-25T14:03:05;102498.34;;;7.01;65.85
27980;BME280;15315;50.836;4.430;2023-01-25T14:13:13;102512.25;;;7.46;65.16
27980;BME280;15315;50.836;4.430;2023-01-25T14:23:25;102512.38;;;6.77;65.43
27980;BME280;15315;50.836;4.430;2023-01-25T14:33:28;102525.19;;;6.29;67.22
27980;BME280;15315;50.836;4.430;2023-01-25T14:43:31;102520.56;;;7.04;66.13
27980;BME280;15315;50.836;4.430;2023-01-25T14:53:31;102520.41;;;6.03;68.08
27980;BME280;15315;50.836;4.430;2023-01-25T15:03:32;102518.44;;;6.85;65.02
27980;BME280;15315;50.836;4.430;2023-01-25T15:13:32;102506.16;;;5.63;67.79
27980;BME280;15315;50.836;4.430;2023-01-25T15:23:32;102502.50;;;6.45;66.44
27980;BME280;15315;50.836;4.430;2023-01-25T15:33:33;102492.50;;;6.15;66.73
27980;BME280;15315;50.836;4.430;2023-01-25T15:43:33;102486.50;;;5.22;70.22
27980;BME280;15315;50.836;4.430;2023-01-25T15:53:34;102475.31;;;5.85;68.09
27980;BME280;15315;50.836;4.430;2023-01-25T16:03:34;102471.16;;;5.72;69.20
27980;BME280;15315;50.836;4.430;2023-01-25T16:13:35;102473.03;;;5.27;69.92
27980;BME280;15315;50.836;4.430;2023-01-25T16:23:35;102492.53;;;5.32;68.88
27980;BME280;15315;50.836;4.430;2023-01-25T16:33:35;102482.81;;;5.69;68.58
27980;BME280;15315;50.836;4.430;2023-01-25T16:43:36;102495.09;;;5.36;69.18
27980;BME280;15315;50.836;4.430;2023-01-25T16:53:36;102523.56;;;4.93;70.65
27980;BME280;15315;50.836;4.430;2023-01-25T17:03:36;102529.59;;;4.54;72.85
27980;BME280;15315;50.836;4.430;2023-01-25T17:13:37;102503.22;;;4.86;73.24
27980;BME280;15315;50.836;4.430;2023-01-25T17:23:37;102504.78;;;4.46;73.97
27980;BME280;15315;50.836;4.430;2023-01-25T17:33:38;102476.84;;;5.14;72.04
27980;BME280;15315;50.836;4.430;2023-01-25T17:43:38;102448.22;;;5.60;70.76
27980;BME280;15315;50.836;4.430;2023-01-25T17:53:38;102420.22;;;5.36;71.43
27980;BME280;15315;50.836;4.430;2023-01-25T18:03:40;102381.75;;;5.80;70.82
27980;BME280;15315;50.836;4.430;2023-01-25T18:13:45;102360.06;;;5.16;71.75
27980;BME280;15315;50.836;4.430;2023-01-25T18:23:46;102329.59;;;5.23;72.35
27980;BME280;15315;50.836;4.430;2023-01-25T18:33:47;102313.78;;;4.72;74.33
27980;BME280;15315;50.836;4.430;2023-01-25T18:43:48;102296.84;;;5.52;72.59
27980;BME280;15315;50.836;4.430;2023-01-25T18:53:49;102265.88;;;5.77;72.22
27980;BME280;15315;50.836;4.430;2023-01-25T19:03:50;102263.84;;;5.86;71.06
27980;BME280;15315;50.836;4.430;2023-01-25T19:13:50;102274.06;;;5.71;71.91
27980;BME280;15315;50.836;4.430;2023-01-25T19:23:52;102251.97;;;5.63;71.72
27980;BME280;15315;50.836;4.430;2023-01-25T19:33:58;102233.06;;;5.70;72.62
27980;BME280;15315;50.836;4.430;2023-01-25T19:44:02;102188.66;;;5.28;73.69
27980;BME280;15315;50.836;4.430;2023-01-25T19:54:05;102215.38;;;5.29;76.54
27980;BME280;15315;50.836;4.430;2023-01-25T20:04:05;102197.88;;;5.84;73.57
27980;BME280;15315;50.836;4.430;2023-01-25T20:14:07;102189.69;;;5.90;73.66
27980;BME280;15315;50.836;4.430;2023-01-25T20:24:08;102166.72;;;5.49;77.97
27980;BME280;15315;50.836;4.430;2023-01-25T20:44:12;102167.75;;;5.77;77.27
27980;BME280;15315;50.836;4.430;2023-01-25T20:54:14;102162.28;;;5.48;79.50
27980;BME280;15315;50.836;4.430;2023-01-25T21:04:15;102158.00;;;5.42;81.05
27980;BME280;15315;50.836;4.430;2023-01-25T21:14:15;102151.44;;;5.54;81.63
27980;BME280;15315;50.836;4.430;2023-01-25T21:24:16;102140.41;;;4.99;90.39
27980;BME280;15315;50.836;4.430;2023-01-25T21:34:16;102119.41;;;5.51;87.39
27980;BME280;15315;50.836;4.430;2023-01-25T21:44:16;102108.91;;;5.11;94.21
27980;BME280;15315;50.836;4.430;2023-01-25T21:54:36;102123.91;;;5.17;96.85
27980;BME280;15315;50.836;4.430;2023-01-25T22:04:37;102103.94;;;4.96;99.20
27980;BME280;15315;50.836;4.430;2023-01-25T22:14:38;102111.22;;;5.25;96.07
27980;BME280;15315;50.836;4.430;2023-01-25T22:24:38;102109.81;;;5.10;97.25
27980;BME280;15315;50.836;4.430;2023-01-25T22:34:38;102109.53;;;5.21;98.64
27980;BME280;15315;50.836;4.430;2023-01-25T22:44:39;102109.13;;;5.36;100.00
27980;BME280;15315;50.836;4.430;2023-01-25T22:54:39;102094.50;;;5.17;100.00
27980;BME280;15315;50.836;4.430;2023-01-25T23:04:39;102071.56;;;5.40;100.00
27980;BME280;15315;50.836;4.430;2023-01-25T23:14:40;102074.91;;;5.81;96.63
27980;BME280;15315;50.836;4.430;2023-01-25T23:24:50;102060.56;;;5.82;95.88
27980;BME280;15315;50.836;4.430;2023-01-25T23:34:50;102061.69;;;5.12;100.00
27980;BME280;15315;50.836;4.430;2023-01-25T23:44:52;102057.09;;;5.15;99.32
27980;BME280;15315;50.836;4.430;2023-01-25T23:54:52;102050.00;;;5.46;98.18
